Etusivu
METAR-TAF:

METAR-TAF

Lentoasemat :

Porin lentoasema

Pori, Suomi

Leveyspiiri: 61-28N, Pituuspiiri: 021-48E, korkeus merenpinnasta: 13 m

Tämänhetkinen sää

Tämä raportti tehtiin 28 minuuttia sitten, kello 18.50 UTC
Tuuli 6 kn lännestä/lounaasta
Lämpötila 20°C
Kosteus 88%
Ilmanpaine 1004 hPa
Näkyvyys 10 km tai enemmän

METAR: EFPO 211850Z AUTO 24006KT 9999 SCT006/// BKN008/// BKN018/// 20/18 Q1004

Aika: 22:18 (19:18 UTC)

Sääennuste

Tämä raportti tehtiin 1 tunti ja 42 minuuttia sitten, kello 17.36 UTC
Ennuste voimassa 21. päivästä klo 18 UTC - 21. päivään klo 23 UTC
Tuuli 5 kn lännestä
Näkyvyys 10 km tai enemmän
ei pilviä alle 1500 m:ssä eikä cumulonimbus-pilviä
Ajoittain
21. päivästä klo 19 UTC - 21. päivään klo 23 UTC
Näkyvyys: 2000 m
Hajonneita pilviä 500 ft:n korkeudessa
utua

TAF: EFPO 211736Z 2118/2123 27005KT CAVOK TEMPO 2119/2123 2000 BR BKN005

Säähavainnot ja -ennusteet yli 4000 lentoasemalta (METAR- ja TAF-raportit).

Käytössä olevat sääasemat on merkitty karttaan keltaisilla ja punaisilla pisteillä.

Aseta hiiri pisteen päälle nähdäksesi sääaseman nimen.

Klikkaa sitten nähdäksesi säähavainnot ja -ennusteet.

Kartan vaihtaminen: klikkaa mustalla rastilla varustettuja vihreitä pisteitä, niin voit zoomata sisään; viivalla varustettua vihreää pistettä, niin voit zoomata ulos tai vihreitä nuolia, niin pääset viereisille kartoille.


METAR-TAF: